Time;durP1;ratioP1;P1;durP2;ratioP2;P2;SDS_P1;SDS_P2;PMS_P1;PMS_P2;Temp;Humidity;BMP_temperature;BMP_pressure;BME280_temperature;BME280_humidity;BME280_pressure;Samples;Min_cycle;Max_cycle;Signal;HPM_P1;HPM_P2
2022/04/22 00:00:09;;;;;;;15.45;9.77;;;;;;;20.04;35.81;98429.25;337167;29;1859;-70
2022/04/22 00:00:22;;;;;;;15.65;9.93;;;;;;;20.06;35.65;98424.69;338898;29;1792;-70
2022/04/22 00:00:37;;;;;;;14.88;9.80;;;;;;;20.08;35.70;98430.66;339628;29;1278;-70
2022/04/22 00:00:49;;;;;;;13.68;9.13;;;;;;;20.12;35.70;98429.38;338743;29;2515;-70
2022/04/22 00:01:01;;;;;;;13.60;9.15;;;;;;;20.12;35.61;98430.25;339305;29;1826;-70
2022/04/22 00:01:13;;;;;;;12.25;9.10;;;;;;;20.07;35.66;98421.91;340630;29;1727;-70
2022/04/22 00:01:26;;;;;;;13.05;9.50;;;;;;;20.08;35.73;98433.28;340608;29;1097;-70
2022/04/22 00:01:38;;;;;;;13.93;9.48;;;;;;;20.06;35.70;98437.88;340795;29;1096;-71
2022/04/22 00:01:50;;;;;;;15.75;9.98;;;;;;;20.07;35.58;98431.63;340965;29;1118;-71
2022/04/22 00:02:03;;;;;;;16.45;10.00;;;;;;;19.95;35.74;98434.41;340146;29;1933;-70
2022/04/22 00:02:18;;;;;;;17.50;10.23;;;;;;;19.90;36.18;98428.72;341902;28;1915;-70
2022/04/22 00:02:30;;;;;;;15.70;9.93;;;;;;;19.95;35.97;98434.41;342168;28;1179;-70
2022/04/22 00:02:42;;;;;;;15.38;9.65;;;;;;;20.00;35.70;98425.25;341984;28;1119;-70
2022/04/22 00:02:55;;;;;;;15.23;9.50;;;;;;;20.02;35.75;98436.47;341805;28;1206;-70
2022/04/22 00:03:08;;;;;;;15.07;9.60;;;;;;;19.98;35.76;98429.81;341429;28;1922;-70
2022/04/22 00:03:20;;;;;;;13.02;9.38;;;;;;;20.05;35.66;98426.50;341873;28;1946;-70
2022/04/22 00:03:32;;;;;;;13.93;9.90;;;;;;;20.06;35.66;98429.94;341900;28;1264;-69
2022/04/22 00:03:45;;;;;;;14.90;9.95;;;;;;;19.97;35.70;98421.09;341258;28;1798;-70
2022/04/22 00:03:57;;;;;;;15.77;10.05;;;;;;;19.94;35.87;98422.22;341531;28;1992;-71
2022/04/22 00:04:10;;;;;;;15.98;10.00;;;;;;;19.94;35.60;98426.63;341690;28;994;-71
2022/04/22 00:04:22;;;;;;;15.98;9.93;;;;;;;19.88;35.90;98428.03;341641;28;1988;-70
2022/04/22 00:04:34;;;;;;;16.20;9.77;;;;;;;19.67;36.37;98419.38;342072;28;1387;-70
2022/04/22 00:04:47;;;;;;;16.85;9.90;;;;;;;19.72;36.41;98428.59;340990;28;2075;-71
2022/04/22 00:04:59;;;;;;;15.85;9.88;;;;;;;19.78;36.18;98429.00;341975;28;1040;-70
2022/04/22 00:05:11;;;;;;;15.27;10.25;;;;;;;19.80;36.13;98425.25;341618;28;1601;-71
2022/04/22 00:05:23;;;;;;;15.43;10.30;;;;;;;19.88;35.95;98428.03;341970;28;1268;-70
2022/04/22 00:05:35;;;;;;;14.57;10.10;;;;;;;19.93;35.91;98425.78;341885;28;1326;-70
2022/04/22 00:05:47;;;;;;;14.70;10.05;;;;;;;19.95;35.88;98426.50;342322;28;1205;-70
2022/04/22 00:06:00;;;;;;;14.40;9.85;;;;;;;19.94;36.07;98424.84;342002;28;1063;-70
2022/04/22 00:06:13;;;;;;;14.05;10.00;;;;;;;19.92;35.96;98426.78;342024;28;1676;-70
2022/04/22 00:06:25;;;;;;;14.77;10.35;;;;;;;19.96;35.85;98422.06;341866;28;1097;-72
2022/04/22 00:06:37;;;;;;;15.15;10.27;;;;;;;19.95;35.96;98429.13;341924;28;1084;-71
2022/04/22 00:06:49;;;;;;;14.50;9.70;;;;;;;19.94;35.97;98427.47;340808;28;2032;-70
2022/04/22 00:07:01;;;;;;;14.63;9.55;;;;;;;19.95;35.89;98423.84;341566;28;1921;-72
2022/04/22 00:07:13;;;;;;;15.30;9.93;;;;;;;19.99;36.05;98426.22;341690;28;1784;-69
2022/04/22 00:07:28;;;;;;;15.68;9.98;;;;;;;19.99;35.91;98424.41;342161;28;1241;-71
2022/04/22 00:07:40;;;;;;;15.88;9.88;;;;;;;19.98;35.90;98421.91;342454;28;1082;-70
2022/04/22 00:07:52;;;;;;;13.90;9.63;;;;;;;19.89;36.03;98421.78;342407;28;1335;-70
2022/04/22 00:08:04;;;;;;;14.35;9.98;;;;;;;19.79;36.10;98426.22;341647;28;1956;-72
2022/04/22 00:08:16;;;;;;;15.32;10.45;;;;;;;19.68;36.41;98421.91;341391;28;1920;-70
2022/04/22 00:08:28;;;;;;;15.75;10.27;;;;;;;19.66;36.68;98422.97;341537;28;1302;-69
2022/04/22 00:08:40;;;;;;;16.20;10.43;;;;;;;19.59;36.52;98421.88;342335;28;1201;-70
2022/04/22 00:08:52;;;;;;;15.80;10.40;;;;;;;19.65;36.54;98423.97;342006;28;1071;-70
2022/04/22 00:09:04;;;;;;;15.70;10.43;;;;;;;19.68;36.72;98421.03;341387;28;1896;-69
2022/04/22 00:09:19;;;;;;;15.77;10.18;;;;;;;19.74;36.38;98425.81;341070;28;1553;-71
2022/04/22 00:09:32;;;;;;;17.02;10.13;;;;;;;19.72;36.37;98422.50;342232;28;1298;-70
2022/04/22 00:09:44;;;;;;;17.13;10.30;;;;;;;19.76;36.38;98429.16;339952;28;1817;-70
2022/04/22 00:09:56;;;;;;;16.60;10.32;;;;;;;19.74;36.45;98423.19;340769;29;1059;-69
2022/04/22 00:10:10;;;;;;;14.30;9.73;;;;;;;19.79;36.25;98420.13;340133;28;2002;-70
2022/04/22 00:10:23;;;;;;;12.88;9.18;;;;;;;19.80;36.15;98419.13;340805;29;1848;-69
2022/04/22 00:10:35;;;;;;;13.88;9.73;;;;;;;19.84;36.11;98421.38;340721;29;1092;-71
2022/04/22 00:11:31;;;;;;;13.82;9.75;;;;;;;19.82;36.21;98427.75;337250;29;2149;-70
2022/04/22 00:11:49;;;;;;;14.45;9.60;;;;;;;19.39;36.95;98415.75;339292;29;1113;-70
2022/04/22 00:12:01;;;;;;;15.27;9.98;;;;;;;19.36;36.93;98422.13;338333;29;2112;-72
2022/04/22 00:12:13;;;;;;;15.45;10.65;;;;;;;19.16;37.27;98422.09;339152;29;2032;-71
2022/04/22 00:12:25;;;;;;;15.43;10.55;;;;;;;19.37;37.17;98418.50;339003;29;1269;-72
2022/04/22 00:12:38;;;;;;;14.15;9.85;;;;;;;19.48;36.94;98421.03;339168;29;1026;-70
2022/04/22 00:12:50;;;;;;;13.88;10.05;;;;;;;19.55;36.70;98421.31;340475;28;1550;-70
2022/04/22 00:13:02;;;;;;;14.10;10.00;;;;;;;19.64;36.76;98420.50;341389;28;1981;-70
2022/04/22 00:13:15;;;;;;;14.30;9.80;;;;;;;19.71;36.42;98420.81;340792;28;2320;-69
2022/04/22 00:13:27;;;;;;;15.45;9.93;;;;;;;19.75;36.37;98422.19;342361;28;1331;-70
2022/04/22 00:13:39;;;;;;;15.70;10.10;;;;;;;19.72;36.49;98419.84;342289;28;1902;-70
2022/04/22 00:13:52;;;;;;;15.32;9.95;;;;;;;19.67;36.49;98416.75;342275;28;1023;-69
2022/04/22 00:14:07;;;;;;;15.82;9.90;;;;;;;19.73;36.28;98418.88;341553;28;1983;-70
2022/04/22 00:14:19;;;;;;;16.08;9.88;;;;;;;19.67;36.38;98419.38;340520;28;2874;-72
2022/04/22 00:14:31;;;;;;;16.35;9.80;;;;;;;19.50;36.74;98419.09;340518;29;2908;-70
2022/04/22 00:14:44;;;;;;;15.27;9.55;;;;;;;19.35;36.99;98418.63;341135;29;1091;-71
2022/04/22 00:14:56;;;;;;;14.90;10.10;;;;;;;19.47;37.09;98419.34;340751;29;1051;-70
2022/04/22 00:15:08;;;;;;;14.82;10.18;;;;;;;19.47;36.86;98421.16;339889;29;1760;-69
2022/04/22 00:15:20;;;;;;;16.02;10.48;;;;;;;19.47;36.91;98418.53;340673;29;1914;-70
2022/04/22 00:15:33;;;;;;;16.00;10.15;;;;;;;19.51;37.02;98415.47;340697;29;1361;-69
2022/04/22 00:15:45;;;;;;;15.98;10.05;;;;;;;19.51;36.77;98415.47;339625;29;2087;-73
2022/04/22 00:15:59;;;;;;;16.75;10.25;;;;;;;19.46;37.03;98412.44;340933;29;1197;-70
2022/04/22 00:16:11;;;;;;;16.42;10.32;;;;;;;19.48;37.01;98415.78;340426;29;1670;-69
2022/04/22 00:16:28;;;;;;;14.85;9.90;;;;;;;19.56;36.80;98412.47;340746;29;1010;-71
2022/04/22 00:16:41;;;;;;;14.57;10.23;;;;;;;19.59;36.96;98416.59;340717;29;1292;-69
2022/04/22 00:16:53;;;;;;;13.88;10.20;;;;;;;19.63;36.87;98412.72;341106;29;1238;-70
2022/04/22 00:17:05;;;;;;;14.90;10.00;;;;;;;19.63;36.56;98412.72;341229;28;2463;-71
2022/04/22 00:17:17;;;;;;;14.93;9.70;;;;;;;19.69;36.68;98422.72;340995;28;1926;-69
2022/04/22 00:17:30;;;;;;;14.07;9.70;;;;;;;19.72;36.54;98417.22;342380;28;1678;-69
2022/04/22 00:17:43;;;;;;;13.45;9.70;;;;;;;19.74;36.47;98421.38;342123;28;1124;-70
2022/04/22 00:17:55;;;;;;;12.73;9.60;;;;;;;19.73;36.39;98418.88;342353;28;1789;-69
2022/04/22 00:18:07;;;;;;;13.52;9.63;;;;;;;19.67;36.59;98419.38;341690;28;1747;-71
2022/04/22 00:18:19;;;;;;;14.55;9.93;;;;;;;19.70;36.55;98419.13;341775;28;1909;-71
2022/04/22 00:18:32;;;;;;;16.50;10.10;;;;;;;19.61;36.76;98419.94;342984;28;1186;-70
2022/04/22 00:18:44;;;;;;;17.08;10.40;;;;;;;19.58;36.88;98413.16;342526;28;2111;-70
2022/04/22 00:19:00;;;;;;;16.35;10.70;;;;;;;19.61;36.67;98410.22;341885;28;1966;-71
2022/04/22 00:19:12;;;;;;;14.27;10.23;;;;;;;19.58;36.96;98414.94;341154;28;1118;-70
2022/04/22 00:19:24;;;;;;;14.82;10.25;;;;;;;19.59;36.80;98412.16;340094;28;1933;-70
2022/04/22 00:19:36;;;;;;;16.40;10.50;;;;;;;19.59;36.72;98406.06;339563;29;1299;-69
2022/04/22 00:19:48;;;;;;;17.45;10.52;;;;;;;19.60;36.80;98418.25;339593;29;1317;-69
2022/04/22 00:20:00;;;;;;;16.15;9.95;;;;;;;19.50;36.84;98416.47;339650;29;1291;-70
2022/04/22 00:20:12;;;;;;;15.65;9.68;;;;;;;19.59;36.79;98412.16;340941;28;1644;-69
2022/04/22 00:20:24;;;;;;;14.88;9.65;;;;;;;19.59;36.77;98413.97;340843;29;1255;-70
2022/04/22 00:20:36;;;;;;;15.02;9.88;;;;;;;19.63;36.75;98407.47;339774;29;1606;-70
2022/04/22 00:20:48;;;;;;;14.93;10.10;;;;;;;19.61;36.78;98417.31;339850;29;1065;-70
2022/04/22 00:21:01;;;;;;;14.30;10.15;;;;;;;19.64;36.55;98412.59;339906;29;1078;-71
2022/04/22 00:21:13;;;;;;;15.45;10.70;;;;;;;19.66;36.65;98413.28;340230;29;1734;-71
2022/04/22 00:21:26;;;;;;;16.10;10.75;;;;;;;19.55;36.66;98408.97;339727;29;2023;-70
2022/04/22 00:21:42;;;;;;;16.27;10.70;;;;;;;19.43;37.10;98411.88;339714;29;1068;-70
2022/04/22 00:21:54;;;;;;;16.23;10.45;;;;;;;19.53;36.86;98408.28;341529;28;1685;-70
2022/04/22 00:22:06;;;;;;;15.85;10.23;;;;;;;19.43;36.83;98404.78;342036;28;1056;-70
2022/04/22 00:22:18;;;;;;;15.82;10.55;;;;;;;19.54;36.81;98411.75;342192;28;1533;-71
2022/04/22 00:22:30;;;;;;;15.07;10.77;;;;;;;19.54;36.80;98409.13;342341;28;1322;-70
2022/04/22 00:22:43;;;;;;;14.98;10.70;;;;;;;19.53;36.94;98408.28;342029;28;1829;-69
2022/04/22 00:22:55;;;;;;;15.07;10.60;;;;;;;19.39;37.07;98406.03;340966;29;1072;-70
2022/04/22 00:23:06;;;;;;;15.02;10.52;;;;;;;18.93;38.15;98410.94;341044;28;2138;-70
2022/04/22 00:23:19;;;;;;;14.35;10.18;;;;;;;19.13;37.56;98409.16;342108;28;1582;-70
2022/04/22 00:23:30;;;;;;;14.07;9.88;;;;;;;19.13;37.57;98411.81;341932;28;1308;-69
2022/04/22 00:23:42;;;;;;;14.00;10.15;;;;;;;19.21;37.48;98405.03;342149;28;1166;-70
2022/04/22 00:23:59;;;;;;;14.90;10.32;;;;;;;19.13;37.67;98401.25;342243;28;1201;-71
2022/04/22 00:24:11;;;;;;;15.10;10.35;;;;;;;19.24;37.33;98402.16;341734;28;1560;-71
2022/04/22 00:24:23;;;;;;;16.58;10.63;;;;;;;19.24;37.38;98413.50;342020;28;1958;-71
2022/04/22 00:24:35;;;;;;;15.57;10.27;;;;;;;19.30;37.21;98407.69;341962;28;1193;-71
2022/04/22 00:24:47;;;;;;;15.95;10.20;;;;;;;19.41;37.18;98408.53;341352;28;2104;-70
2022/04/22 00:24:59;;;;;;;15.32;10.40;;;;;;;19.48;36.93;98410.50;341828;28;1968;-70
2022/04/22 00:25:14;;;;;;;14.77;10.35;;;;;;;19.55;36.78;98411.59;342526;28;1042;-70
2022/04/22 00:25:26;;;;;;;14.85;10.15;;;;;;;19.60;36.84;98408.56;341842;28;1171;-71
2022/04/22 00:25:38;;;;;;;15.73;10.05;;;;;;;19.64;36.62;98415.22;341990;28;1193;-71
2022/04/22 00:25:50;;;;;;;16.15;10.18;;;;;;;19.67;36.54;98406.22;341530;28;2005;-70
2022/04/22 00:26:05;;;;;;;14.05;9.63;;;;;;;19.74;36.45;98410.00;342366;28;1862;-70
2022/04/22 00:26:18;;;;;;;13.25;9.32;;;;;;;19.77;36.30;98414.97;342239;28;1273;-70
2022/04/22 00:26:30;;;;;;;13.85;9.52;;;;;;;19.81;36.41;98413.72;342185;28;1270;-69
2022/04/22 00:26:42;;;;;;;14.25;9.80;;;;;;;19.82;36.51;98409.28;341811;28;2127;-71
2022/04/22 00:26:54;;;;;;;14.88;10.00;;;;;;;19.82;36.20;98415.41;342164;28;2326;-71
2022/04/22 00:27:06;;;;;;;15.90;10.50;;;;;;;19.83;36.39;98408.31;341812;28;2163;-71
2022/04/22 00:27:19;;;;;;;16.40;10.65;;;;;;;19.80;36.41;98409.44;342285;28;1934;-70
2022/04/22 00:27:31;;;;;;;15.57;10.75;;;;;;;19.72;36.40;98404.03;340746;28;1446;-70
2022/04/22 00:27:44;;;;;;;14.48;10.40;;;;;;;19.66;36.37;98407.16;340695;28;1733;-71
2022/04/22 00:27:56;;;;;;;15.57;10.60;;;;;;;19.67;36.52;98406.22;340183;29;1716;-69
2022/04/22 00:28:08;;;;;;;16.00;10.60;;;;;;;19.70;36.50;98413.84;341240;29;964;-69
2022/04/22 00:28:21;;;;;;;15.75;10.20;;;;;;;19.73;36.36;98403.88;341167;29;1189;-70
2022/04/22 00:28:34;;;;;;;15.30;10.20;;;;;;;19.74;36.32;98410.81;340809;29;1440;-69
2022/04/22 00:28:46;;;;;;;15.73;10.45;;;;;;;19.80;36.16;98408.59;340910;29;1496;-69
2022/04/22 00:28:58;;;;;;;15.45;10.15;;;;;;;19.82;36.26;98412.78;340771;29;1517;-70
2022/04/22 00:29:11;;;;;;;16.20;10.10;;;;;;;19.82;36.30;98409.28;340240;28;1896;-69
2022/04/22 00:29:23;;;;;;;15.35;9.93;;;;;;;19.82;36.33;98412.78;340875;29;2179;-71
2022/04/22 00:29:35;;;;;;;13.88;9.60;;;;;;;19.83;36.20;98409.16;341022;29;1328;-71
2022/04/22 00:29:47;;;;;;;14.38;9.90;;;;;;;19.70;36.44;98413.84;339983;28;1756;-71
2022/04/22 00:29:59;;;;;;;15.27;10.25;;;;;;;19.64;36.48;98411.75;339676;29;1929;-70
2022/04/22 00:30:12;;;;;;;14.45;9.90;;;;;;;19.67;36.37;98408.84;339727;29;1095;-70
2022/04/22 00:30:24;;;;;;;15.25;9.90;;;;;;;19.70;36.37;98413.84;340768;29;1040;-70
2022/04/22 00:30:36;;;;;;;16.02;10.23;;;;;;;19.60;36.64;98413.00;340292;29;1204;-70
2022/04/22 00:30:48;;;;;;;16.20;10.38;;;;;;;19.66;36.55;98412.44;341056;29;1203;-69
2022/04/22 00:31:00;;;;;;;17.05;10.10;;;;;;;19.69;36.56;98412.19;340807;28;1192;-70
2022/04/22 00:31:13;;;;;;;16.30;9.88;;;;;;;19.72;36.39;98412.78;342251;28;1564;-70
2022/04/22 00:31:25;;;;;;;14.93;9.77;;;;;;;19.74;36.40;98412.63;342113;28;1331;-69
2022/04/22 00:31:38;;;;;;;14.65;9.88;;;;;;;19.75;36.34;98412.47;342005;28;1287;-70
2022/04/22 00:31:50;;;;;;;14.35;10.07;;;;;;;19.80;36.35;98413.88;341273;28;1515;-71
2022/04/22 00:32:03;;;;;;;14.10;10.15;;;;;;;19.79;36.25;98407.75;341704;28;1998;-71
2022/04/22 00:32:15;;;;;;;14.43;10.13;;;;;;;19.74;36.32;98410.00;341019;28;1804;-70
2022/04/22 00:32:27;;;;;;;15.18;9.98;;;;;;;19.78;36.23;98416.66;342018;28;1205;-70
2022/04/22 00:32:39;;;;;;;14.63;9.55;;;;;;;19.77;36.22;98414.16;342299;28;1078;-70
2022/04/22 00:32:51;;;;;;;13.90;9.75;;;;;;;19.80;36.25;98414.72;342251;28;1226;-73
2022/04/22 00:33:04;;;;;;;13.88;10.00;;;;;;;19.83;36.14;98410.97;341040;28;2936;-71
2022/04/22 00:33:17;;;;;;;14.35;9.93;;;;;;;19.86;36.27;98419.44;340991;28;1464;-69
2022/04/22 00:33:29;;;;;;;15.02;10.18;;;;;;;19.88;36.05;98414.84;340573;28;1826;-71
2022/04/22 00:33:44;;;;;;;16.38;10.73;;;;;;;19.90;35.99;98412.06;341953;28;2912;-70
2022/04/22 00:33:56;;;;;;;17.33;11.15;;;;;;;19.91;36.06;98411.91;342120;28;980;-69
2022/04/22 00:34:08;;;;;;;16.45;10.98;;;;;;;19.89;35.86;98411.22;341651;28;1914;-70
2022/04/22 00:34:20;;;;;;;15.90;10.68;;;;;;;19.89;36.08;98419.13;342198;28;1877;-70
2022/04/22 00:34:32;;;;;;;15.05;10.20;;;;;;;19.86;36.04;98408.88;342416;28;1201;-69
2022/04/22 00:34:45;;;;;;;15.18;10.35;;;;;;;19.86;36.16;98414.16;342229;28;1012;-71
2022/04/22 00:34:57;;;;;;;14.60;10.10;;;;;;;19.85;36.17;98412.47;341554;28;2663;-70
2022/04/22 00:35:09;;;;;;;15.50;10.45;;;;;;;19.83;35.99;98409.16;341647;28;1906;-70
2022/04/22 00:35:21;;;;;;;15.68;10.65;;;;;;;19.78;36.38;98411.38;342270;28;1711;-70
2022/04/22 00:35:33;;;;;;;16.40;10.77;;;;;;;19.80;36.27;98409.44;340669;29;1906;-70
2022/04/22 00:35:45;;;;;;;16.58;10.65;;;;;;;19.82;36.18;98407.50;340891;29;1116;-70
2022/04/22 00:35:58;;;;;;;16.25;10.68;;;;;;;19.82;36.23;98412.78;340914;28;1139;-70
2022/04/22 00:36:10;;;;;;;15.60;11.05;;;;;;;19.83;36.36;98406.50;340427;28;1757;-69
2022/04/22 00:36:23;;;;;;;15.55;11.15;;;;;;;19.87;36.25;98410.53;340514;29;1999;-69
2022/04/22 00:36:36;;;;;;;16.50;10.98;;;;;;;19.87;36.13;98410.53;339599;29;1083;-69
2022/04/22 00:36:48;;;;;;;15.63;10.75;;;;;;;19.86;36.12;98413.31;339523;29;1251;-70
2022/04/22 00:37:00;;;;;;;14.88;10.73;;;;;;;19.83;36.21;98405.69;338718;29;2212;-71
2022/04/22 00:37:12;;;;;;;15.50;10.75;;;;;;;19.87;36.19;98413.16;338674;29;1874;-70
2022/04/22 00:37:24;;;;;;;15.15;10.73;;;;;;;19.89;36.15;98411.22;339566;29;1088;-69
2022/04/22 00:37:36;;;;;;;14.98;10.60;;;;;;;19.87;36.04;98417.63;340294;29;1063;-69
2022/04/22 00:37:49;;;;;;;14.77;10.57;;;;;;;19.72;36.50;98417.22;341130;29;719;-70
2022/04/22 00:38:01;;;;;;;15.02;10.48;;;;;;;19.75;36.26;98412.47;340394;28;2039;-71
2022/04/22 00:38:13;;;;;;;15.15;10.75;;;;;;;19.78;36.25;98411.38;340721;29;1728;-71
2022/04/22 00:38:25;;;;;;;15.75;10.77;;;;;;;19.78;36.28;98416.66;340787;29;1303;-69
2022/04/22 00:38:37;;;;;;;16.08;10.93;;;;;;;19.75;36.35;98414.28;341383;28;1052;-71
2022/04/22 00:38:49;;;;;;;16.90;10.77;;;;;;;19.78;36.15;98411.38;341671;28;1916;-70
2022/04/22 00:39:02;;;;;;;16.67;10.52;;;;;;;19.71;36.44;98412.91;341655;28;1919;-71
2022/04/22 00:39:14;;;;;;;16.92;10.77;;;;;;;19.72;36.41;98415.41;341406;28;2100;-70
2022/04/22 00:39:26;;;;;;;17.20;11.20;;;;;;;19.74;36.35;98415.28;342091;28;1284;-70
2022/04/22 00:39:38;;;;;;;16.90;10.98;;;;;;;19.74;36.34;98410.00;342075;28;1242;-70
2022/04/22 00:39:51;;;;;;;15.90;10.65;;;;;;;19.75;36.18;98414.28;341715;28;1990;-70
2022/04/22 00:40:04;;;;;;;15.10;10.50;;;;;;;19.74;36.40;98415.28;340105;28;2139;-70
2022/04/22 00:40:16;;;;;;;15.15;10.55;;;;;;;19.70;36.32;98409.41;340593;29;1795;-70
2022/04/22 00:40:28;;;;;;;15.27;10.23;;;;;;;19.74;36.61;98410.81;340318;29;2087;-71
2022/04/22 00:40:40;;;;;;;14.55;10.13;;;;;;;19.76;36.34;98415.97;339756;29;1666;-70
2022/04/22 00:40:55;;;;;;;14.25;10.27;;;;;;;19.73;36.35;98408.31;340946;29;937;-69
2022/04/22 00:41:08;;;;;;;15.48;10.27;;;;;;;19.72;36.28;98410.13;340123;28;1906;-70
2022/04/22 00:41:20;;;;;;;16.17;10.48;;;;;;;19.71;36.38;98415.53;340821;29;1903;-70
2022/04/22 00:41:32;;;;;;;15.68;10.43;;;;;;;19.74;36.28;98417.91;340918;29;1325;-70
2022/04/22 00:41:45;;;;;;;14.50;10.30;;;;;;;19.74;36.24;98415.28;340334;28;1701;-71
2022/04/22 00:41:57;;;;;;;14.38;10.63;;;;;;;19.80;36.24;98413.88;340776;29;1095;-72
2022/04/22 00:42:10;;;;;;;14.65;10.57;;;;;;;19.83;36.16;98413.59;341028;28;1970;-72
2022/04/22 00:42:22;;;;;;;14.95;10.48;;;;;;;19.86;36.14;98413.31;342251;28;1704;-72
2022/04/22 00:42:36;;;;;;;15.52;10.70;;;;;;;19.86;36.11;98408.88;339696;29;1209;-71
2022/04/22 00:42:48;;;;;;;15.55;10.60;;;;;;;19.83;36.07;98408.31;339854;29;812;-71
2022/04/22 00:43:14;;;;;;;14.98;10.40;;;;;;;19.79;36.23;98413.03;339436;29;1574;-71
2022/04/22 00:43:27;;;;;;;15.85;10.45;;;;;;;19.78;36.53;98408.75;340516;29;1809;-69
2022/04/22 00:43:42;;;;;;;17.15;10.60;;;;;;;19.81;36.31;98415.53;339265;28;2112;-70
2022/04/22 00:43:55;;;;;;;17.85;10.77;;;;;;;19.80;36.16;98409.44;341248;28;1193;-69
2022/04/22 00:44:07;;;;;;;17.13;10.65;;;;;;;19.79;36.09;98413.03;339712;28;1898;-71
2022/04/22 00:44:19;;;;;;;15.85;10.60;;;;;;;19.78;36.17;98410.53;340504;28;1755;-70
2022/04/22 00:44:31;;;;;;;14.95;10.40;;;;;;;19.78;36.39;98406.13;340925;29;1262;-70
2022/04/22 00:44:43;;;;;;;15.35;10.80;;;;;;;19.78;36.41;98411.38;341624;28;2127;-70
2022/04/22 00:44:57;;;;;;;18.40;11.23;;;;;;;19.65;36.44;98408.16;340957;29;1259;-70
2022/04/22 00:45:09;;;;;;;18.88;11.55;;;;;;;19.61;36.49;98407.59;341478;28;1771;-69
2022/04/22 00:45:21;;;;;;;18.25;11.70;;;;;;;19.65;36.60;98413.41;340461;29;1657;-69
2022/04/22 00:45:34;;;;;;;16.20;11.07;;;;;;;19.64;36.58;98406.47;340281;29;1272;-70
2022/04/22 00:45:46;;;;;;;15.75;10.63;;;;;;;19.61;36.53;98404.94;340825;29;1072;-70
2022/04/22 00:45:58;;;;;;;15.80;10.82;;;;;;;19.65;36.38;98408.16;340812;29;1073;-69
2022/04/22 00:46:11;;;;;;;17.17;11.20;;;;;;;19.69;36.38;98412.19;340399;28;1965;-69
2022/04/22 00:46:23;;;;;;;16.23;10.95;;;;;;;19.66;36.28;98410.66;340644;29;1874;-71
2022/04/22 00:46:35;;;;;;;16.30;11.10;;;;;;;19.45;36.87;98402.84;340963;29;1072;-70
2022/04/22 00:46:47;;;;;;;16.30;11.40;;;;;;;19.17;37.50;98409.72;341003;29;1079;-71
2022/04/22 00:46:59;;;;;;;16.95;11.63;;;;;;;19.28;37.43;98403.53;340842;29;1260;-69
2022/04/22 00:47:11;;;;;;;16.90;11.57;;;;;;;19.30;37.23;98401.59;339647;28;1789;-70
2022/04/22 00:47:24;;;;;;;16.80;11.30;;;;;;;19.39;36.95;98400.75;339161;28;2066;-70
2022/04/22 00:47:36;;;;;;;16.38;11.07;;;;;;;19.24;37.48;98402.16;340357;28;1525;-69
2022/04/22 00:47:48;;;;;;;16.52;11.25;;;;;;;19.32;37.38;98402.28;340118;28;1808;-69
2022/04/22 00:48:00;;;;;;;16.63;11.35;;;;;;;19.39;37.05;98400.75;340848;29;1071;-70
2022/04/22 00:48:13;;;;;;;17.15;11.35;;;;;;;19.45;37.06;98402.84;340311;29;1716;-69
2022/04/22 00:48:25;;;;;;;17.70;11.40;;;;;;;19.48;37.20;98402.59;340200;29;1219;-70
2022/04/22 00:48:37;;;;;;;17.40;11.20;;;;;;;19.58;36.99;98399.13;340668;29;1047;-69
2022/04/22 00:48:49;;;;;;;17.58;11.60;;;;;;;19.62;36.67;98406.63;341049;29;1253;-70
2022/04/22 00:49:01;;;;;;;16.48;11.50;;;;;;;19.67;36.69;98403.56;341057;28;1679;-72
2022/04/22 00:49:13;;;;;;;18.13;11.63;;;;;;;19.60;36.80;98402.44;340245;28;3703;-72
2022/04/22 00:49:25;;;;;;;17.67;11.13;;;;;;;19.58;36.69;98404.38;341113;28;2426;-70
2022/04/22 00:49:37;;;;;;;17.48;11.13;;;;;;;19.43;37.17;98402.16;342260;28;1047;-71
2022/04/22 00:49:50;;;;;;;16.75;11.25;;;;;;;19.45;36.89;98402.03;342038;28;2659;-72
2022/04/22 00:50:02;;;;;;;18.00;11.65;;;;;;;19.48;36.89;98397.31;341818;28;2048;-71
2022/04/22 00:50:15;;;;;;;17.42;11.50;;;;;;;19.52;36.75;98403.16;341469;28;1529;-69
2022/04/22 00:50:27;;;;;;;16.45;11.15;;;;;;;19.50;36.86;98398.00;342004;28;1141;-69
2022/04/22 00:50:40;;;;;;;16.23;10.70;;;;;;;19.52;36.81;98395.25;342516;28;726;-69
2022/04/22 00:50:52;;;;;;;15.50;10.82;;;;;;;19.53;36.88;98397.72;341802;28;1869;-70
2022/04/22 00:51:05;;;;;;;15.20;10.70;;;;;;;19.52;36.77;98403.97;341151;28;2094;-70
2022/04/22 00:51:18;;;;;;;16.20;10.80;;;;;;;19.54;36.72;98399.41;342341;28;1079;-69
2022/04/22 00:51:31;;;;;;;16.83;10.80;;;;;;;19.58;36.47;98399.97;341449;28;1383;-69
2022/04/22 00:51:44;;;;;;;16.63;10.63;;;;;;;19.64;36.60;98398.56;342317;28;1032;-70
2022/04/22 00:51:56;;;;;;;15.57;10.82;;;;;;;19.64;36.61;98404.69;342669;28;740;-69
2022/04/22 00:52:08;;;;;;;16.58;10.95;;;;;;;19.68;36.50;98405.22;342102;28;1192;-69
2022/04/22 00:52:21;;;;;;;16.85;10.95;;;;;;;19.68;36.52;98406.06;342069;28;1098;-69
2022/04/22 00:52:33;;;;;;;15.85;10.82;;;;;;;19.70;36.66;98403.31;341799;28;1255;-69
2022/04/22 00:52:46;;;;;;;15.63;11.02;;;;;;;19.70;36.63;98403.31;342150;28;1407;-69
2022/04/22 00:52:58;;;;;;;15.25;10.88;;;;;;;19.62;36.61;98395.22;341307;28;2153;-70
2022/04/22 00:53:11;;;;;;;15.48;10.63;;;;;;;19.66;36.55;98386.94;340693;29;1329;-69
2022/04/22 00:53:25;;;;;;;16.63;10.73;;;;;;;19.67;36.43;98393.03;339552;29;1869;-71
2022/04/22 00:53:41;;;;;;;16.27;10.93;;;;;;;19.65;36.71;98402.88;340842;29;1265;-70
2022/04/22 00:53:54;;;;;;;16.15;11.13;;;;;;;19.65;36.66;98394.97;340921;28;1035;-69
2022/04/22 00:54:07;;;;;;;16.05;10.98;;;;;;;19.56;36.76;98396.63;340569;29;1182;-69
2022/04/22 00:54:19;;;;;;;18.38;11.30;;;;;;;19.65;36.44;98400.25;340651;29;1210;-71
2022/04/22 00:54:33;;;;;;;18.73;11.63;;;;;;;19.66;36.58;98393.97;340772;29;1318;-70
2022/04/22 00:54:48;;;;;;;17.65;11.60;;;;;;;19.64;36.49;98395.91;339882;28;2070;-69
2022/04/22 00:55:00;;;;;;;17.17;11.50;;;;;;;19.63;36.56;98402.19;340964;28;1275;-71
2022/04/22 00:55:12;;;;;;;15.75;11.00;;;;;;;19.65;36.63;98394.97;340714;29;1302;-69
2022/04/22 00:55:24;;;;;;;15.57;10.80;;;;;;;19.69;36.44;98396.34;340501;28;1916;-69
2022/04/22 00:55:39;;;;;;;15.23;10.70;;;;;;;19.69;36.29;98393.72;340633;29;1080;-69
2022/04/22 00:55:54;;;;;;;14.93;10.52;;;;;;;19.71;36.36;98394.44;340249;29;1172;-69
2022/04/22 00:56:08;;;;;;;14.68;10.35;;;;;;;19.72;36.34;98396.13;340966;28;1039;-70
2022/04/22 00:56:21;;;;;;;15.13;10.55;;;;;;;19.65;36.55;98394.97;340563;29;1257;-69
2022/04/22 00:56:34;;;;;;;17.83;11.35;;;;;;;19.56;36.70;98400.09;341294;28;1704;-71
2022/04/22 00:56:46;;;;;;;18.38;11.70;;;;;;;19.50;36.90;98398.00;340920;28;1652;-69
2022/04/22 00:56:58;;;;;;;17.67;11.60;;;;;;;19.37;37.04;98392.16;341785;28;1880;-69
2022/04/22 00:57:11;;;;;;;16.65;11.30;;;;;;;19.45;36.86;98388.84;340944;29;1185;-69
2022/04/22 00:57:25;;;;;;;17.73;11.18;;;;;;;19.48;36.87;98389.41;340802;29;1103;-69
2022/04/22 00:57:37;;;;;;;16.35;10.90;;;;;;;19.13;37.27;98388.09;339631;29;1035;-69
2022/04/22 00:57:50;;;;;;;15.02;11.02;;;;;;;19.36;37.12;98390.50;339275;29;1176;-69
2022/04/22 00:58:05;;;;;;;15.85;11.23;;;;;;;19.38;37.05;98393.84;339397;28;2123;-69
2022/04/22 00:58:17;;;;;;;17.15;11.35;;;;;;;18.90;37.68;98390.13;340340;29;1918;-72
2022/04/22 00:58:30;;;;;;;17.40;11.35;;;;;;;19.01;37.61;98386.53;340454;29;1642;-69
2022/04/22 00:58:44;;;;;;;17.00;11.35;;;;;;;19.05;37.81;98387.94;340815;29;1096;-70
2022/04/22 00:58:57;;;;;;;17.45;11.43;;;;;;;19.14;37.54;98397.69;339171;29;1756;-70
2022/04/22 00:59:10;;;;;;;17.73;11.50;;;;;;;19.11;37.65;98392.66;339054;29;1890;-71
2022/04/22 00:59:26;;;;;;;18.15;11.55;;;;;;;19.08;37.54;98395.59;340705;29;1031;-69
2022/04/22 00:59:39;;;;;;;18.88;11.93;;;;;;;19.10;37.57;98383.09;339403;29;1987;-71
2022/04/22 00:59:51;;;;;;;18.45;11.95;;;;;;;19.20;37.45;98392.84;340860;29;1114;-69
2022/04/22 01:00:04;;;;;;;18.85;11.63;;;;;;;19.26;37.35;98387.03;340364;29;1999;-69
2022/04/22 01:00:16;;;;;;;18.13;11.48;;;;;;;19.28;37.33;98393.81;339865;29;1851;-70
2022/04/22 01:00:28;;;;;;;16.50;11.32;;;;;;;19.32;37.39;98394.41;337945;29;2103;-70